Terminal Aerodrome Forecast
Issued by NWS

Current Version | Previous Version | Text Only | Print | Product List | Glossary Off
Versions: 1 2 3 4 5 6 7 8 9 10 11 12 13 14 15 16 17 18 19 20 21 22 23 24 25 26 27 28 29 30 31 32 33 34 35 36 37 38 39 40 41 42 43 44 45 46 47 48 49 50

000
FTUS41 KRNK 230933 AAA
TAFLWB
TAF AMD
KLWB 230933Z 2310/2406 00000KT P6SM SCT040
      TEMPO 2310/2312 2SM BR BKN001
     FM231330 26003KT 4SM BR SCT005 BKN030
     FM231500 27004KT P6SM SCT040
     FM231900 28005KT P6SM VCTS BKN050CB
     FM240000 30004KT P6SM SCT045 BKN250=

USA.gov is the U.S. government's official web portal to all federal, state and local government web resources and services.